createdAt,value
2023-05-23T00:09:03.098Z,9.90
2023-05-23T00:12:05.201Z,10.70
2023-05-23T00:15:07.800Z,12.00
2023-05-23T00:18:10.612Z,12.40
2023-05-23T00:21:12.470Z,11.60
2023-05-23T00:24:14.272Z,10.70
2023-05-23T00:27:15.973Z,11.60
2023-05-23T00:30:17.641Z,11.80
2023-05-23T00:33:19.281Z,11.20
2023-05-23T00:36:20.831Z,11.20
2023-05-23T00:42:23.970Z,11.00
2023-05-23T00:45:25.697Z,12.30
2023-05-23T00:48:27.779Z,11.60
2023-05-23T00:51:29.406Z,11.80
2023-05-23T00:54:31.289Z,12.50
2023-05-23T00:57:32.953Z,13.50
2023-05-23T01:00:34.781Z,12.40
2023-05-23T01:03:36.511Z,12.10
2023-05-23T01:06:38.129Z,12.30
2023-05-23T01:09:39.800Z,12.70
2023-05-23T01:13:07.555Z,13.70
2023-05-23T01:16:16.473Z,11.50
2023-05-23T01:19:30.161Z,13.10
2023-05-23T01:22:57.169Z,12.30
2023-05-23T01:26:07.729Z,11.10
2023-05-23T01:29:15.492Z,13.00
2023-05-23T01:32:17.644Z,11.80
2023-05-23T01:35:25.620Z,11.80
2023-05-23T01:38:27.382Z,11.10
2023-05-23T01:41:29.019Z,14.10
2023-05-23T01:44:31.178Z,13.10
2023-05-23T01:47:33.215Z,10.90
2023-05-23T01:50:35.096Z,10.80
2023-05-23T01:53:37.268Z,11.80
2023-05-23T01:56:39.840Z,11.50
2023-05-23T01:59:41.569Z,13.30
2023-05-23T02:02:43.246Z,11.20
2023-05-23T02:05:44.891Z,12.70
2023-05-23T02:11:48.170Z,14.10
2023-05-23T02:17:51.738Z,9.80
2023-05-23T02:20:53.426Z,11.70
2023-05-23T02:23:55.082Z,11.10
2023-05-23T02:29:58.182Z,9.00
2023-05-23T02:36:01.668Z,10.50
2023-05-23T02:39:03.953Z,11.50
2023-05-23T02:42:05.817Z,13.80
2023-05-23T02:45:08.177Z,12.50
2023-05-23T02:48:10.021Z,15.10
2023-05-23T02:51:11.774Z,14.80
2023-05-23T02:54:13.552Z,12.90
2023-05-23T03:00:17.069Z,12.10
2023-05-23T03:03:18.894Z,12.40
2023-05-23T03:06:20.653Z,12.00
2023-05-23T03:09:22.352Z,12.80
2023-05-23T03:12:24.258Z,13.70
2023-05-23T03:15:25.974Z,13.10
2023-05-23T03:18:27.763Z,14.30
2023-05-23T03:21:29.583Z,16.90
2023-05-23T03:24:31.445Z,13.70
2023-05-23T03:27:33.338Z,12.40
2023-05-23T03:30:35.158Z,12.90
2023-05-23T03:33:39.651Z,12.00
2023-05-23T03:36:42.247Z,10.10
2023-05-23T03:39:44.046Z,9.70
2023-05-23T03:42:48.586Z,10.20
2023-05-23T03:45:50.556Z,9.40
2023-05-23T03:48:52.358Z,9.60
2023-05-23T03:51:54.019Z,9.50
2023-05-23T03:54:55.780Z,9.80
2023-05-23T03:57:57.464Z,10.40
2023-05-23T04:01:01.258Z,10.20
2023-05-23T04:04:03.814Z,10.40
2023-05-23T04:07:06.106Z,10.70
2023-05-23T04:10:08.618Z,10.60
2023-05-23T04:13:10.598Z,10.20
2023-05-23T04:16:12.285Z,9.90
2023-05-23T04:19:13.958Z,10.20
2023-05-23T04:22:15.642Z,10.50
2023-05-23T04:25:17.424Z,10.20
2023-05-23T04:28:19.227Z,10.00
2023-05-23T04:31:21.816Z,10.00
2023-05-23T04:34:23.555Z,10.30
2023-05-23T04:37:25.118Z,10.40
2023-05-23T04:40:26.727Z,10.40
2023-05-23T04:43:28.285Z,10.30
2023-05-23T04:46:30.210Z,10.40
2023-05-23T04:49:32.067Z,10.10
2023-05-23T04:52:33.754Z,10.70
2023-05-23T04:55:35.579Z,9.40
2023-05-23T04:58:37.194Z,10.30
2023-05-23T05:01:39.041Z,9.30
2023-05-23T05:04:40.798Z,9.10
2023-05-23T05:07:42.701Z,10.10
2023-05-23T05:10:44.437Z,10.30
2023-05-23T05:13:46.092Z,9.60
2023-05-23T05:16:47.854Z,9.40
2023-05-23T05:19:49.488Z,9.80
2023-05-23T05:25:20.516Z,10.60
2023-05-23T05:28:22.394Z,10.20
2023-05-23T05:31:23.964Z,10.20
2023-05-23T05:34:25.574Z,9.50
2023-05-23T05:37:27.275Z,9.70
2023-05-23T05:40:28.889Z,9.20
2023-05-23T05:43:30.881Z,9.60
2023-05-23T05:46:32.483Z,9.80
2023-05-23T05:49:34.204Z,9.50
2023-05-23T05:52:35.978Z,9.50
2023-05-23T05:55:37.693Z,9.60
2023-05-23T05:58:39.374Z,9.70
2023-05-23T06:01:40.993Z,10.00
2023-05-23T06:04:42.817Z,9.80
2023-05-23T06:07:44.495Z,10.00
2023-05-23T06:10:46.140Z,10.20
2023-05-23T06:13:47.706Z,9.90
2023-05-23T06:16:49.537Z,9.80
2023-05-23T06:19:51.535Z,9.90
2023-05-23T06:22:53.296Z,9.10
2023-05-23T06:25:55.078Z,9.40
2023-05-23T06:28:56.756Z,9.20
2023-05-23T06:31:58.412Z,8.10
2023-05-23T06:35:00.180Z,8.30
2023-05-23T06:38:01.825Z,8.20
2023-05-23T06:41:03.580Z,8.50
2023-05-23T06:44:05.312Z,7.70
2023-05-23T06:47:06.998Z,8.00
2023-05-23T06:50:09.068Z,8.00
2023-05-23T06:53:10.821Z,8.30
2023-05-23T06:56:12.390Z,7.40
2023-05-23T06:59:14.087Z,7.60
2023-05-23T07:02:15.706Z,7.60
2023-05-23T07:05:17.653Z,7.40
2023-05-23T07:08:19.457Z,7.70
2023-05-23T07:11:21.874Z,7.40
2023-05-23T07:14:23.556Z,7.40
2023-05-23T07:17:25.173Z,7.10
2023-05-23T07:20:26.934Z,6.70
2023-05-23T07:23:32.857Z,6.70
2023-05-23T07:26:34.453Z,6.80
2023-05-23T07:29:36.115Z,7.20
2023-05-23T07:32:37.860Z,7.10
2023-05-23T07:35:39.615Z,6.40
2023-05-23T07:38:41.274Z,7.10
2023-05-23T07:41:43.061Z,6.70
2023-05-23T07:44:44.687Z,7.10
2023-05-23T07:47:46.329Z,6.80
2023-05-23T07:50:47.923Z,7.00
2023-05-23T07:53:49.621Z,6.70
2023-05-23T07:56:52.062Z,6.90
2023-05-23T07:59:54.146Z,6.80
2023-05-23T08:02:55.893Z,7.20
2023-05-23T08:05:57.976Z,6.70
2023-05-23T08:09:01.216Z,6.50
2023-05-23T08:12:02.886Z,6.70
2023-05-23T08:15:06.219Z,6.60
2023-05-23T08:18:07.999Z,6.00
2023-05-23T08:21:09.760Z,6.60
2023-05-23T08:24:12.793Z,6.50
2023-05-23T08:27:16.444Z,6.50
2023-05-23T08:30:18.223Z,6.20
2023-05-23T08:33:20.171Z,6.30
2023-05-23T08:36:22.118Z,6.30
2023-05-23T08:39:23.855Z,5.60
2023-05-23T08:42:26.714Z,6.10
2023-05-23T08:45:28.506Z,6.10
2023-05-23T08:48:30.471Z,5.90
2023-05-23T08:51:32.604Z,5.90
2023-05-23T08:54:34.959Z,5.90
2023-05-23T08:57:36.892Z,6.00
2023-05-23T09:00:38.774Z,5.50
2023-05-23T09:03:41.042Z,5.70
2023-05-23T09:06:42.869Z,5.40
2023-05-23T09:09:45.012Z,5.30
2023-05-23T09:12:46.683Z,5.40
2023-05-23T09:16:04.740Z,5.40
2023-05-23T09:19:14.047Z,5.20
2023-05-23T09:22:15.733Z,5.60
2023-05-23T09:25:17.564Z,5.30
2023-05-23T09:28:19.251Z,5.20
2023-05-23T09:31:26.807Z,5.80
2023-05-23T09:34:28.684Z,5.60
2023-05-23T09:37:38.878Z,5.80
2023-05-23T09:40:45.326Z,5.50
2023-05-23T09:43:51.661Z,5.40
2023-05-23T09:46:53.435Z,5.90
2023-05-23T09:49:55.414Z,5.40
2023-05-23T09:52:56.999Z,5.60
2023-05-23T09:56:03.346Z,5.20
2023-05-23T09:59:05.747Z,5.70
2023-05-23T10:02:09.101Z,5.30
2023-05-23T10:05:20.915Z,5.80
2023-05-23T10:08:44.474Z,5.20
2023-05-23T10:12:11.462Z,5.40
2023-05-23T10:15:15.425Z,5.10
2023-05-23T10:18:25.048Z,5.00
2023-05-23T10:21:59.503Z,7.20
2023-05-23T10:25:01.856Z,5.40
2023-05-23T10:28:04.520Z,5.40
2023-05-23T10:31:06.613Z,5.10
2023-05-23T10:34:30.680Z,5.40
2023-05-23T10:38:00.168Z,5.50
2023-05-23T10:41:04.561Z,5.30
2023-05-23T10:44:28.671Z,5.50
2023-05-23T10:47:30.584Z,5.40
2023-05-23T10:50:34.735Z,5.80
2023-05-23T10:53:38.680Z,5.10
2023-05-23T10:56:40.298Z,5.10
2023-05-23T10:59:42.151Z,5.10
2023-05-23T11:02:54.032Z,5.20
2023-05-23T11:05:55.774Z,5.50
2023-05-23T11:09:07.216Z,5.20
2023-05-23T11:12:09.488Z,4.80
2023-05-23T11:15:17.251Z,5.00
2023-05-23T11:18:24.006Z,5.00
2023-05-23T11:21:25.930Z,5.30
2023-05-23T11:24:53.775Z,5.60
2023-05-23T11:27:55.435Z,4.80
2023-05-23T11:30:57.141Z,4.90
2023-05-23T11:33:58.915Z,5.00
2023-05-23T11:37:00.694Z,4.80
2023-05-23T11:40:31.827Z,5.00
2023-05-23T11:43:33.661Z,5.40
2023-05-23T11:46:35.312Z,5.20
2023-05-23T11:49:38.537Z,4.60
2023-05-23T11:52:40.492Z,4.70
2023-05-23T11:55:48.721Z,4.90
2023-05-23T11:58:50.754Z,4.60
2023-05-23T12:01:53.035Z,4.80
2023-05-23T12:04:54.764Z,4.60
2023-05-23T12:07:56.851Z,4.80
2023-05-23T12:11:00.509Z,5.30
2023-05-23T12:14:03.620Z,6.10
2023-05-23T12:17:05.270Z,4.50
2023-05-23T12:20:07.494Z,4.60
2023-05-23T12:23:09.282Z,4.80
2023-05-23T12:26:10.902Z,4.80
2023-05-23T12:29:12.571Z,4.80
2023-05-23T12:32:14.226Z,4.50
2023-05-23T12:35:16.092Z,4.30
2023-05-23T12:38:17.773Z,4.20
2023-05-23T12:41:20.824Z,4.60
2023-05-23T12:44:22.703Z,4.90
2023-05-23T12:47:24.458Z,6.10
2023-05-23T12:50:26.492Z,5.30
2023-05-23T12:53:29.846Z,4.70
2023-05-23T12:56:31.604Z,4.30
2023-05-23T12:59:33.209Z,4.30
2023-05-23T13:02:34.904Z,4.50
2023-05-23T13:05:36.502Z,4.20
2023-05-23T13:08:38.141Z,4.10
2023-05-23T13:11:39.771Z,4.30
2023-05-23T13:14:42.159Z,4.20
2023-05-23T13:17:49.544Z,4.00
2023-05-23T13:20:51.740Z,4.30
2023-05-23T13:23:53.517Z,3.90
2023-05-23T13:26:55.185Z,3.90
2023-05-23T13:29:56.773Z,3.90
2023-05-23T13:32:58.746Z,4.30
2023-05-23T13:36:00.498Z,4.00
2023-05-23T13:39:02.395Z,4.10
2023-05-23T13:42:04.166Z,4.00
2023-05-23T13:45:06.481Z,3.80
2023-05-23T13:48:08.133Z,4.20
2023-05-23T13:51:10.043Z,4.60
2023-05-23T13:54:11.920Z,4.30
2023-05-23T13:57:13.630Z,4.50
2023-05-23T14:00:15.950Z,4.30
2023-05-23T14:03:17.639Z,4.70
2023-05-23T14:06:19.301Z,4.60
2023-05-23T14:09:23.087Z,4.50
2023-05-23T14:12:25.664Z,4.30
2023-05-23T14:15:27.339Z,4.30
2023-05-23T14:18:29.441Z,4.50
2023-05-23T14:21:31.115Z,4.80
2023-05-23T14:24:32.773Z,4.30
2023-05-23T14:27:34.561Z,4.80
2023-05-23T14:30:36.144Z,4.40
2023-05-23T14:33:37.706Z,4.20
2023-05-23T14:36:39.417Z,4.40
2023-05-23T14:39:41.369Z,4.40
2023-05-23T14:42:43.421Z,4.30
2023-05-23T14:45:45.413Z,4.40
2023-05-23T14:48:47.417Z,4.80
2023-05-23T14:51:51.485Z,4.40
2023-05-23T14:54:54.012Z,4.70
2023-05-23T14:57:55.657Z,4.90
2023-05-23T15:00:57.592Z,4.50
2023-05-23T15:03:59.199Z,4.60
2023-05-23T15:07:00.975Z,4.60
2023-05-23T15:10:03.113Z,4.20
2023-05-23T15:13:04.909Z,4.50
2023-05-23T15:16:06.799Z,4.10
2023-05-23T15:19:08.483Z,4.60
2023-05-23T15:22:18.441Z,5.00
2023-05-23T15:25:33.897Z,4.40
2023-05-23T15:28:45.792Z,4.70
2023-05-23T15:31:47.363Z,4.80
2023-05-23T15:34:49.033Z,5.40
2023-05-23T15:37:50.650Z,4.50
2023-05-23T15:40:52.353Z,4.50
2023-05-23T15:43:53.911Z,4.90
2023-05-23T15:46:55.904Z,4.70
2023-05-23T15:49:57.580Z,5.00
2023-05-23T15:52:59.230Z,5.90
2023-05-23T15:56:00.857Z,6.80
2023-05-23T15:59:02.610Z,7.20
2023-05-23T16:02:04.513Z,7.30
2023-05-23T16:05:06.604Z,7.90
2023-05-23T16:08:08.248Z,8.40
2023-05-23T16:11:09.995Z,7.70
2023-05-23T16:14:11.635Z,8.20
2023-05-23T16:17:13.339Z,8.30
2023-05-23T16:20:15.148Z,8.70
2023-05-23T16:23:16.861Z,8.60
2023-05-23T16:26:18.662Z,9.20
2023-05-23T16:29:20.221Z,8.60
2023-05-23T16:32:22.011Z,7.90
2023-05-23T16:35:24.000Z,8.40
2023-05-23T16:38:25.859Z,8.00
2023-05-23T16:41:27.579Z,8.30
2023-05-23T16:44:29.272Z,8.50
2023-05-23T16:47:31.380Z,7.90
2023-05-23T16:50:32.980Z,8.70
2023-05-23T16:53:34.713Z,9.10
2023-05-23T16:56:36.418Z,8.60
2023-05-23T16:59:37.992Z,8.90
2023-05-23T17:02:39.904Z,9.20
2023-05-23T17:05:41.960Z,8.20
2023-05-23T17:08:44.387Z,8.90
2023-05-23T17:11:46.917Z,8.80
2023-05-23T17:14:48.862Z,8.80
2023-05-23T17:17:51.053Z,9.00
2023-05-23T17:20:52.992Z,8.90
2023-05-23T17:23:55.053Z,9.10
2023-05-23T17:26:56.969Z,9.20
2023-05-23T17:29:58.772Z,9.60
2023-05-23T17:33:00.552Z,9.70
2023-05-23T17:36:02.927Z,10.20
2023-05-23T17:39:04.772Z,10.00
2023-05-23T17:42:11.792Z,9.00
2023-05-23T17:45:13.702Z,9.70
2023-05-23T17:48:15.668Z,9.30
2023-05-23T17:51:17.539Z,9.70
2023-05-23T17:54:19.421Z,9.70
2023-05-23T17:57:21.386Z,9.80
2023-05-23T18:00:23.567Z,9.70
2023-05-23T18:03:25.382Z,9.70
2023-05-23T18:06:27.413Z,10.00
2023-05-23T18:09:29.154Z,10.30
2023-05-23T18:12:31.175Z,11.60
2023-05-23T18:15:33.225Z,11.90
2023-05-23T18:18:35.130Z,10.90
2023-05-23T18:21:36.972Z,10.00
2023-05-23T18:24:38.902Z,10.80
2023-05-23T18:27:40.717Z,9.90
2023-05-23T18:30:42.735Z,9.60
2023-05-23T18:33:44.874Z,10.10
2023-05-23T18:36:46.720Z,9.70
2023-05-23T18:39:48.384Z,9.40
2023-05-23T18:42:50.276Z,9.40
2023-05-23T18:45:51.950Z,9.00
2023-05-23T18:48:53.895Z,9.20
2023-05-23T18:51:55.624Z,8.70
2023-05-23T18:54:57.372Z,9.00
2023-05-23T18:57:59.242Z,8.10
2023-05-23T19:01:01.675Z,8.60
2023-05-23T19:04:03.608Z,8.20
2023-05-23T19:07:05.241Z,9.00
2023-05-23T19:10:07.679Z,8.50
2023-05-23T19:13:10.129Z,8.80
2023-05-23T19:16:11.937Z,7.50
2023-05-23T19:19:13.714Z,8.80
2023-05-23T19:22:15.454Z,8.00
2023-05-23T19:25:20.751Z,8.70
2023-05-23T19:28:23.337Z,9.40
2023-05-23T19:31:25.391Z,9.60
2023-05-23T19:34:27.505Z,8.60
2023-05-23T19:37:30.236Z,8.90
2023-05-23T19:40:32.066Z,8.80
2023-05-23T19:43:33.740Z,9.40
2023-05-23T19:46:35.712Z,9.70
2023-05-23T19:49:37.980Z,9.80
2023-05-23T19:52:40.823Z,10.00
2023-05-23T19:55:42.738Z,10.20
2023-05-23T19:58:44.618Z,10.50
2023-05-23T20:01:46.321Z,9.40
2023-05-23T20:04:48.387Z,9.70
2023-05-23T20:07:50.330Z,10.50
2023-05-23T20:10:51.943Z,8.90
2023-05-23T20:13:53.915Z,9.50
2023-05-23T20:16:56.207Z,9.10
2023-05-23T20:19:57.961Z,10.30
2023-05-23T20:22:59.594Z,9.40
2023-05-23T20:26:01.262Z,10.20
2023-05-23T20:29:03.145Z,10.20
2023-05-23T20:32:05.126Z,10.50
2023-05-23T20:35:06.930Z,9.60
2023-05-23T20:38:08.478Z,10.50
2023-05-23T20:41:10.474Z,10.10
2023-05-23T20:44:12.365Z,10.70
2023-05-23T20:47:14.122Z,10.70
2023-05-23T20:50:15.804Z,10.40
2023-05-23T20:53:17.600Z,10.20
2023-05-23T20:56:19.227Z,10.60
2023-05-23T20:59:21.370Z,10.70
2023-05-23T21:02:23.037Z,10.50
2023-05-23T21:05:24.910Z,11.00
2023-05-23T21:08:26.654Z,11.50
2023-05-23T21:11:28.280Z,11.10
2023-05-23T21:14:29.842Z,11.50
2023-05-23T21:17:31.504Z,11.30
2023-05-23T21:20:33.159Z,12.10
2023-05-23T21:23:34.888Z,12.40
2023-05-23T21:26:36.514Z,13.80
2023-05-23T21:29:38.047Z,13.90
2023-05-23T21:32:39.960Z,14.10
2023-05-23T21:35:41.815Z,14.60
2023-05-23T21:38:44.109Z,16.60
2023-05-23T21:41:45.845Z,16.30
2023-05-23T21:44:47.575Z,17.50
2023-05-23T21:47:49.294Z,17.50
2023-05-23T21:50:50.894Z,17.80
2023-05-23T21:53:52.685Z,19.40
2023-05-23T21:56:54.326Z,18.50
2023-05-23T21:59:55.966Z,18.90
2023-05-23T22:02:57.812Z,19.30
2023-05-23T22:05:59.741Z,20.50
2023-05-23T22:09:01.428Z,18.40
2023-05-23T22:12:03.374Z,18.70
2023-05-23T22:15:06.216Z,20.50
2023-05-23T22:18:08.065Z,22.80
2023-05-23T22:21:09.837Z,22.90
2023-05-23T22:24:11.403Z,22.60
2023-05-23T22:27:13.074Z,23.00
2023-05-23T22:30:14.985Z,22.80
2023-05-23T22:33:16.545Z,23.50
2023-05-23T22:36:18.323Z,24.60
2023-05-23T22:39:20.015Z,23.30
2023-05-23T22:42:21.763Z,24.00
2023-05-23T22:45:23.430Z,24.00
2023-05-23T22:48:25.067Z,23.80
2023-05-23T22:51:26.748Z,22.30
2023-05-23T22:54:28.448Z,21.50
2023-05-23T22:57:30.069Z,21.40
2023-05-23T23:00:31.818Z,21.50
2023-05-23T23:03:35.496Z,20.90
2023-05-23T23:06:37.856Z,22.50
2023-05-23T23:09:39.408Z,22.50
2023-05-23T23:12:41.128Z,21.50
2023-05-23T23:15:43.148Z,22.30
2023-05-23T23:18:45.479Z,21.90
2023-05-23T23:21:47.309Z,22.90
2023-05-23T23:24:49.021Z,23.60
2023-05-23T23:27:50.850Z,23.60
2023-05-23T23:30:52.552Z,22.80
2023-05-23T23:33:54.160Z,23.10
2023-05-23T23:36:55.856Z,23.00
2023-05-23T23:39:57.535Z,23.50
2023-05-23T23:42:59.114Z,23.50
2023-05-23T23:46:00.817Z,25.00
2023-05-23T23:49:02.517Z,26.10
2023-05-23T23:52:04.412Z,25.70
2023-05-23T23:55:06.580Z,27.10
2023-05-23T23:58:08.261Z,27.90
